createdAt,value
2018-08-16T00:01:55.596Z,12.80
2018-08-16T00:04:23.787Z,12.80
2018-08-16T00:06:51.809Z,12.80
2018-08-16T00:09:19.965Z,12.70
2018-08-16T00:11:47.859Z,12.70
2018-08-16T00:14:15.996Z,12.60
2018-08-16T00:16:44.363Z,12.60
2018-08-16T00:19:12.403Z,12.60
2018-08-16T00:21:40.447Z,12.60
2018-08-16T00:24:08.630Z,12.60
2018-08-16T00:26:36.863Z,12.50
2018-08-16T00:29:05.008Z,12.50
2018-08-16T00:31:32.955Z,12.50
2018-08-16T00:34:00.796Z,12.50
2018-08-16T00:36:28.895Z,12.50
2018-08-16T00:38:56.982Z,12.40
2018-08-16T00:41:26.084Z,12.40
2018-08-16T00:43:54.255Z,12.30
2018-08-16T00:46:22.251Z,12.30
2018-08-16T00:48:50.389Z,12.30
2018-08-16T00:51:18.597Z,12.30
2018-08-16T00:53:46.453Z,12.30
2018-08-16T00:56:14.314Z,12.20
2018-08-16T00:58:42.271Z,12.20
2018-08-16T01:01:10.428Z,12.20
2018-08-16T01:03:38.481Z,12.10
2018-08-16T01:06:06.632Z,12.10
2018-08-16T01:08:34.637Z,12.10
2018-08-16T01:11:02.624Z,12.10
2018-08-16T01:13:30.733Z,12.00
2018-08-16T01:15:58.642Z,12.10
2018-08-16T01:18:27.634Z,12.00
2018-08-16T01:20:55.752Z,12.10
2018-08-16T01:23:23.724Z,12.10
2018-08-16T01:25:51.612Z,12.10
2018-08-16T01:28:19.760Z,12.00
2018-08-16T01:30:47.647Z,12.00
2018-08-16T01:33:15.543Z,12.00
2018-08-16T01:35:43.679Z,11.90
2018-08-16T01:38:11.460Z,11.90
2018-08-16T01:40:39.349Z,11.80
2018-08-16T01:43:07.430Z,11.80
2018-08-16T01:45:35.466Z,11.80
2018-08-16T01:48:03.638Z,11.80
2018-08-16T01:50:31.809Z,11.80
2018-08-16T01:52:59.596Z,11.80
2018-08-16T01:55:27.443Z,11.70
2018-08-16T01:57:55.624Z,11.70
2018-08-16T02:00:23.516Z,11.60
2018-08-16T02:02:51.404Z,11.60
2018-08-16T02:05:19.562Z,11.60
2018-08-16T02:07:47.306Z,11.60
2018-08-16T02:10:15.293Z,11.60
2018-08-16T02:12:43.372Z,11.60
2018-08-16T02:15:12.482Z,11.50
2018-08-16T02:17:40.508Z,11.50
2018-08-16T02:20:09.443Z,11.50
2018-08-16T02:22:37.450Z,11.40
2018-08-16T02:25:05.506Z,11.40
2018-08-16T02:27:33.524Z,11.40
2018-08-16T02:30:01.435Z,11.30
2018-08-16T02:32:29.585Z,11.30
2018-08-16T02:34:57.535Z,11.30
2018-08-16T02:37:25.657Z,11.20
2018-08-16T02:39:54.727Z,11.20
2018-08-16T02:42:22.715Z,11.20
2018-08-16T02:44:50.621Z,11.20
2018-08-16T02:47:18.764Z,11.20
2018-08-16T02:49:46.625Z,11.20
2018-08-16T02:52:14.505Z,11.10
2018-08-16T02:54:42.690Z,11.10
2018-08-16T02:57:10.774Z,11.10
2018-08-16T02:59:38.676Z,11.10
2018-08-16T03:02:06.571Z,11.10
2018-08-16T03:04:34.601Z,11.10
2018-08-16T03:07:02.617Z,11.00
2018-08-16T03:09:30.551Z,11.00
2018-08-16T03:11:58.503Z,11.00
2018-08-16T03:14:26.467Z,11.00
2018-08-16T03:16:55.442Z,11.00
2018-08-16T03:19:23.918Z,11.00
2018-08-16T03:21:51.897Z,11.00
2018-08-16T03:24:19.930Z,10.90
2018-08-16T03:26:47.770Z,10.90
2018-08-16T03:29:15.794Z,10.90
2018-08-16T03:31:44.141Z,10.90
2018-08-16T03:34:12.115Z,10.90
2018-08-16T03:36:39.921Z,10.90
2018-08-16T03:39:09.132Z,10.90
2018-08-16T03:41:37.319Z,10.80
2018-08-16T03:44:05.749Z,10.80
2018-08-16T03:46:33.934Z,10.80
2018-08-16T03:49:01.782Z,10.80
2018-08-16T03:51:30.331Z,10.80
2018-08-16T03:53:58.499Z,10.80
2018-08-16T03:56:26.623Z,10.80
2018-08-16T03:58:54.587Z,10.80
2018-08-16T04:01:22.608Z,10.80
2018-08-16T04:03:50.484Z,10.80
2018-08-16T04:06:18.549Z,10.80
2018-08-16T04:08:46.459Z,10.80
2018-08-16T04:11:14.346Z,10.80
2018-08-16T04:13:42.475Z,10.80
2018-08-16T04:16:10.455Z,10.80
2018-08-16T04:18:38.487Z,10.80
2018-08-16T04:21:06.415Z,10.80
2018-08-16T04:23:34.336Z,10.80
2018-08-16T04:26:02.113Z,10.80
2018-08-16T04:28:30.134Z,10.80
2018-08-16T04:30:57.961Z,10.80
2018-08-16T04:33:25.788Z,10.80
2018-08-16T04:35:53.742Z,10.80
2018-08-16T04:38:21.731Z,10.90
2018-08-16T04:40:49.665Z,10.90
2018-08-16T04:43:17.459Z,11.00
2018-08-16T04:45:45.601Z,11.10
2018-08-16T04:48:13.675Z,11.20
2018-08-16T04:50:41.924Z,11.30
2018-08-16T04:53:09.970Z,11.40
2018-08-16T04:55:37.964Z,11.50
2018-08-16T04:58:06.120Z,11.60
2018-08-16T05:00:34.077Z,11.80
2018-08-16T05:03:02.333Z,11.90
2018-08-16T05:05:30.384Z,12.00
2018-08-16T05:07:58.235Z,12.10
2018-08-16T05:10:26.144Z,12.30
2018-08-16T05:12:54.266Z,12.50
2018-08-16T05:15:22.208Z,12.60
2018-08-16T05:17:50.538Z,12.70
2018-08-16T05:20:18.641Z,12.90
2018-08-16T05:22:46.465Z,13.00
2018-08-16T05:25:14.627Z,13.20
2018-08-16T05:27:42.543Z,13.40
2018-08-16T05:30:12.069Z,13.60
2018-08-16T05:32:40.344Z,13.80
2018-08-16T05:35:08.497Z,13.90
2018-08-16T05:37:37.558Z,14.10
2018-08-16T05:40:06.417Z,14.20
2018-08-16T05:42:34.231Z,14.40
2018-08-16T05:45:02.457Z,14.60
2018-08-16T05:47:30.259Z,14.80
2018-08-16T05:49:58.413Z,15.00
2018-08-16T05:52:26.605Z,15.10
2018-08-16T05:54:54.579Z,15.30
2018-08-16T05:57:22.617Z,15.50
2018-08-16T05:59:50.668Z,15.60
2018-08-16T06:02:18.815Z,15.80
2018-08-16T06:04:46.829Z,15.90
2018-08-16T06:07:14.909Z,16.10
2018-08-16T06:09:42.957Z,16.20
2018-08-16T06:12:11.017Z,16.40
2018-08-16T06:14:38.983Z,16.60
2018-08-16T06:17:07.158Z,16.80
2018-08-16T06:19:35.854Z,16.90
2018-08-16T06:22:04.618Z,17.10
2018-08-16T06:24:32.771Z,17.30
2018-08-16T06:27:00.670Z,17.40
2018-08-16T06:29:28.699Z,17.50
2018-08-16T06:31:56.929Z,17.70
2018-08-16T06:34:24.993Z,17.80
2018-08-16T06:36:53.034Z,18.00
2018-08-16T06:39:21.369Z,18.20
2018-08-16T06:41:49.401Z,18.30
2018-08-16T06:44:17.594Z,18.40
2018-08-16T06:46:45.673Z,18.60
2018-08-16T06:49:13.780Z,18.70
2018-08-16T06:51:42.105Z,18.90
2018-08-16T06:54:10.310Z,19.00
2018-08-16T06:56:39.011Z,19.20
2018-08-16T06:59:07.297Z,19.40
2018-08-16T07:01:35.174Z,19.60
2018-08-16T07:04:03.340Z,19.80
2018-08-16T07:06:31.512Z,20.00
2018-08-16T07:08:59.449Z,20.10
2018-08-16T07:11:28.492Z,20.30
2018-08-16T07:13:57.339Z,20.50
2018-08-16T07:16:25.838Z,20.70
2018-08-16T07:18:53.718Z,20.90
2018-08-16T07:21:22.628Z,21.10
2018-08-16T07:23:50.716Z,21.30
2018-08-16T07:26:18.826Z,21.50
2018-08-16T07:28:46.783Z,21.60
2018-08-16T07:31:14.833Z,21.70
2018-08-16T07:33:42.799Z,21.90
2018-08-16T07:36:10.839Z,22.00
2018-08-16T07:38:39.727Z,22.10
2018-08-16T07:41:07.822Z,22.30
2018-08-16T07:43:35.822Z,22.40
2018-08-16T07:46:05.401Z,22.50
2018-08-16T07:48:34.246Z,22.70
2018-08-16T07:51:03.089Z,22.90
2018-08-16T07:53:31.988Z,23.00
2018-08-16T07:56:00.225Z,23.20
2018-08-16T07:58:28.157Z,23.30
2018-08-16T08:00:57.078Z,23.40
2018-08-16T08:03:26.420Z,23.50
2018-08-16T08:05:55.208Z,23.70
2018-08-16T08:08:24.279Z,23.70
2018-08-16T08:10:53.567Z,23.90
2018-08-16T08:13:22.582Z,24.00
2018-08-16T08:15:51.467Z,24.20
2018-08-16T08:18:20.305Z,24.30
2018-08-16T08:20:49.497Z,24.50
2018-08-16T08:23:18.327Z,24.60
2018-08-16T08:25:47.212Z,24.70
2018-08-16T08:28:17.186Z,24.80
2018-08-16T08:30:46.050Z,24.80
2018-08-16T08:33:15.068Z,25.00
2018-08-16T08:35:49.578Z,25.10
2018-08-16T08:38:18.745Z,25.20
2018-08-16T08:40:47.647Z,25.20
2018-08-16T08:44:29.305Z,25.30
2018-08-16T08:46:58.113Z,25.40
2018-08-16T08:49:27.010Z,25.60
2018-08-16T08:51:56.072Z,25.70
2018-08-16T08:54:37.220Z,25.80
2018-08-16T08:57:17.108Z,25.90
2018-08-16T08:59:46.136Z,25.90
2018-08-16T09:02:15.382Z,26.00
2018-08-16T09:04:44.204Z,26.10
2018-08-16T09:07:14.711Z,26.20
2018-08-16T09:10:59.428Z,26.30
2018-08-16T09:13:39.752Z,26.30
2018-08-16T09:16:13.173Z,26.50
2018-08-16T09:18:43.300Z,26.60
2018-08-16T09:21:12.781Z,26.70
2018-08-16T09:23:41.597Z,26.70
2018-08-16T09:26:15.694Z,26.70
2018-08-16T09:28:44.620Z,26.70
2018-08-16T09:31:25.154Z,26.90
2018-08-16T09:34:33.780Z,27.00
2018-08-16T09:37:02.762Z,27.10
2018-08-16T09:39:31.469Z,27.20
2018-08-16T09:42:00.824Z,27.30
2018-08-16T09:44:29.949Z,27.30
2018-08-16T09:47:12.571Z,27.30
2018-08-16T09:49:45.846Z,27.50
2018-08-16T09:52:16.421Z,27.60
2018-08-16T09:54:45.219Z,27.70
2018-08-16T09:57:14.948Z,27.80
2018-08-16T09:59:43.847Z,27.90
2018-08-16T10:02:15.150Z,28.10
2018-08-16T10:04:44.147Z,28.20
2018-08-16T10:07:13.247Z,28.30
2018-08-16T10:09:42.203Z,28.40
2018-08-16T10:12:11.709Z,28.50
2018-08-16T10:14:40.605Z,28.60
2018-08-16T10:17:09.549Z,28.70
2018-08-16T10:19:38.472Z,28.70
2018-08-16T10:22:07.532Z,28.80
2018-08-16T10:24:36.656Z,28.90
2018-08-16T10:27:05.788Z,29.00
2018-08-16T10:29:34.772Z,29.00
2018-08-16T10:32:04.043Z,28.90
2018-08-16T10:34:32.939Z,28.90
2018-08-16T10:37:01.666Z,29.00
2018-08-16T10:39:30.344Z,28.90
2018-08-16T10:42:00.018Z,28.90
2018-08-16T10:44:29.063Z,29.00
2018-08-16T10:46:58.093Z,29.10
2018-08-16T10:49:27.205Z,29.10
2018-08-16T10:51:55.880Z,29.10
2018-08-16T10:54:24.672Z,29.10
2018-08-16T10:56:54.031Z,29.20
2018-08-16T10:59:22.861Z,29.20
2018-08-16T11:01:51.815Z,29.20
2018-08-16T11:04:20.577Z,29.20
2018-08-16T11:06:49.483Z,29.20
2018-08-16T11:09:18.318Z,29.30
2018-08-16T11:11:47.253Z,29.40
2018-08-16T11:14:16.240Z,29.50
2018-08-16T11:16:45.357Z,29.60
2018-08-16T11:19:14.470Z,29.70
2018-08-16T11:21:44.154Z,29.70
2018-08-16T11:24:13.449Z,29.70
2018-08-16T11:26:42.516Z,29.70
2018-08-16T11:29:11.641Z,29.80
2018-08-16T11:31:41.052Z,29.90
2018-08-16T11:34:11.100Z,29.90
2018-08-16T11:36:40.392Z,29.90
2018-08-16T11:39:09.424Z,30.00
2018-08-16T11:41:38.404Z,30.00
2018-08-16T11:44:07.462Z,30.00
2018-08-16T11:46:36.322Z,30.10
2018-08-16T11:49:05.319Z,30.10
2018-08-16T11:51:34.727Z,30.10
2018-08-16T11:54:06.569Z,30.10
2018-08-16T11:56:36.002Z,30.10
2018-08-16T11:59:05.180Z,30.20
2018-08-16T12:01:34.356Z,30.30
2018-08-16T12:04:03.322Z,30.40
2018-08-16T12:06:32.010Z,31.10
2018-08-16T12:09:01.225Z,30.50
2018-08-16T12:11:30.923Z,30.40
2018-08-16T12:13:59.927Z,30.40
2018-08-16T12:16:29.081Z,30.40
2018-08-16T12:18:58.127Z,30.30
2018-08-16T12:21:27.301Z,30.10
2018-08-16T12:23:56.161Z,30.00
2018-08-16T12:26:24.844Z,30.00
2018-08-16T12:28:53.811Z,30.10
2018-08-16T12:31:23.924Z,30.30
2018-08-16T12:33:53.064Z,30.40
2018-08-16T12:36:22.781Z,30.40
2018-08-16T12:38:51.793Z,30.50
2018-08-16T12:41:20.882Z,30.60
2018-08-16T12:43:50.416Z,30.60
2018-08-16T12:46:19.733Z,30.60
2018-08-16T12:48:48.375Z,30.60
2018-08-16T12:51:16.952Z,30.50
2018-08-16T12:53:46.264Z,30.50
2018-08-16T12:56:15.251Z,30.40
2018-08-16T12:58:44.317Z,30.50
2018-08-16T13:01:13.292Z,30.40
2018-08-16T13:03:42.166Z,30.50
2018-08-16T13:06:11.254Z,30.50
2018-08-16T13:08:40.319Z,30.50
2018-08-16T13:11:09.407Z,30.40
2018-08-16T13:13:38.438Z,30.40
2018-08-16T13:16:07.679Z,30.20
2018-08-16T13:18:36.992Z,30.20
2018-08-16T13:21:05.829Z,30.20
2018-08-16T13:23:34.765Z,30.20
2018-08-16T13:26:03.426Z,30.10
2018-08-16T13:28:32.281Z,30.00
2018-08-16T13:31:01.231Z,29.90
2018-08-16T13:33:30.975Z,29.90
2018-08-16T13:36:00.410Z,29.80
2018-08-16T13:38:29.388Z,29.80
2018-08-16T13:40:59.349Z,29.90
2018-08-16T13:43:28.580Z,30.00
2018-08-16T13:45:57.232Z,29.90
2018-08-16T13:48:26.143Z,29.90
2018-08-16T13:50:54.864Z,30.00
2018-08-16T13:53:23.901Z,29.90
2018-08-16T13:55:53.053Z,30.00
2018-08-16T13:58:22.083Z,30.10
2018-08-16T14:00:51.341Z,30.20
2018-08-16T14:03:21.216Z,30.30
2018-08-16T14:05:50.214Z,30.30
2018-08-16T14:08:19.480Z,30.30
2018-08-16T14:10:50.280Z,30.30
2018-08-16T14:13:20.442Z,30.20
2018-08-16T14:15:49.330Z,30.10
2018-08-16T14:18:18.898Z,30.00
2018-08-16T14:20:48.299Z,29.90
2018-08-16T14:23:17.361Z,29.80
2018-08-16T14:25:46.495Z,29.80
2018-08-16T14:28:15.435Z,29.80
2018-08-16T14:30:44.571Z,29.80
2018-08-16T14:33:13.754Z,29.70
2018-08-16T14:35:42.552Z,29.60
2018-08-16T14:38:11.708Z,29.50
2018-08-16T14:40:41.195Z,29.40
2018-08-16T14:43:09.905Z,29.30
2018-08-16T14:45:39.283Z,29.10
2018-08-16T14:48:11.113Z,29.00
2018-08-16T14:50:41.308Z,28.90
2018-08-16T14:53:10.779Z,28.90
2018-08-16T14:55:39.764Z,28.80
2018-08-16T14:58:09.419Z,28.80
2018-08-16T15:00:38.394Z,28.70
2018-08-16T15:03:07.718Z,28.70
2018-08-16T15:05:36.615Z,28.60
2018-08-16T15:08:05.661Z,28.50
2018-08-16T15:10:34.962Z,28.50
2018-08-16T15:13:04.074Z,28.50
2018-08-16T15:15:33.237Z,28.40
2018-08-16T15:18:02.294Z,28.30
2018-08-16T15:20:31.403Z,28.40
2018-08-16T15:23:00.538Z,28.40
2018-08-16T15:25:29.367Z,28.50
2018-08-16T15:27:58.428Z,28.60
2018-08-16T15:30:27.263Z,28.80
2018-08-16T15:32:56.123Z,28.90
2018-08-16T15:35:25.888Z,28.70
2018-08-16T15:37:54.691Z,28.40
2018-08-16T15:40:24.561Z,28.20
2018-08-16T15:42:53.269Z,27.90
2018-08-16T15:45:22.324Z,27.60
2018-08-16T15:47:51.240Z,27.40
2018-08-16T15:50:20.135Z,27.30
2018-08-16T15:52:49.148Z,27.10
2018-08-16T15:55:18.564Z,27.10
2018-08-16T15:57:47.643Z,27.00
2018-08-16T16:00:16.534Z,26.90
2018-08-16T16:02:45.267Z,26.80
2018-08-16T16:05:14.213Z,26.80
2018-08-16T16:07:43.101Z,26.70
2018-08-16T16:10:11.937Z,26.60
2018-08-16T16:12:40.959Z,26.60
2018-08-16T16:15:10.567Z,26.50
2018-08-16T16:17:39.903Z,26.50
2018-08-16T16:20:09.416Z,26.40
2018-08-16T16:22:38.477Z,26.40
2018-08-16T16:25:08.085Z,26.30
2018-08-16T16:27:37.186Z,26.20
2018-08-16T16:30:07.826Z,26.20
2018-08-16T16:32:37.177Z,26.20
2018-08-16T16:35:06.596Z,26.10
2018-08-16T16:37:35.537Z,26.00
2018-08-16T16:40:04.794Z,26.00
2018-08-16T16:42:33.732Z,25.90
2018-08-16T16:45:02.673Z,25.90
2018-08-16T16:47:31.356Z,25.80
2018-08-16T16:50:00.268Z,25.80
2018-08-16T16:52:29.278Z,25.70
2018-08-16T16:54:58.117Z,25.70
2018-08-16T16:57:27.214Z,25.60
2018-08-16T16:59:55.772Z,25.60
2018-08-16T17:02:24.500Z,25.50
2018-08-16T17:04:53.879Z,25.50
2018-08-16T17:07:23.282Z,25.40
2018-08-16T17:09:51.813Z,25.30
2018-08-16T17:12:20.378Z,25.20
2018-08-16T17:14:48.892Z,25.20
2018-08-16T17:17:17.388Z,25.10
2018-08-16T17:19:45.863Z,25.00
2018-08-16T17:22:14.512Z,25.00
2018-08-16T17:24:42.955Z,24.90
2018-08-16T17:27:11.468Z,24.80
2018-08-16T17:29:39.970Z,24.60
2018-08-16T17:32:08.681Z,24.50
2018-08-16T17:34:37.102Z,24.40
2018-08-16T17:37:05.685Z,24.30
2018-08-16T17:39:34.286Z,24.20
2018-08-16T17:42:02.977Z,24.20
2018-08-16T17:44:31.551Z,24.10
2018-08-16T17:47:00.094Z,24.00
2018-08-16T17:49:28.627Z,23.90
2018-08-16T17:51:57.246Z,23.80
2018-08-16T17:54:25.739Z,23.70
2018-08-16T17:56:54.499Z,23.60
2018-08-16T17:59:22.913Z,23.50
2018-08-16T18:01:51.446Z,23.40
2018-08-16T18:04:19.959Z,23.20
2018-08-16T18:06:48.512Z,23.10
2018-08-16T18:09:17.046Z,23.00
2018-08-16T18:11:45.555Z,22.90
2018-08-16T18:14:14.051Z,22.80
2018-08-16T18:16:42.592Z,22.60
2018-08-16T18:19:11.130Z,22.60
2018-08-16T18:21:39.648Z,22.40
2018-08-16T18:24:08.150Z,22.30
2018-08-16T18:26:37.015Z,22.20
2018-08-16T18:29:07.488Z,22.10
2018-08-16T18:31:36.077Z,21.90
2018-08-16T18:34:04.632Z,21.80
2018-08-16T18:36:33.144Z,21.60
2018-08-16T18:39:01.630Z,21.50
2018-08-16T18:41:30.141Z,21.30
2018-08-16T18:43:59.100Z,21.20
2018-08-16T18:46:27.955Z,21.00
2018-08-16T18:49:03.468Z,20.90
2018-08-16T18:51:35.377Z,20.80
2018-08-16T18:54:05.177Z,20.70
2018-08-16T18:56:33.015Z,20.50
2018-08-16T18:59:00.853Z,20.40
2018-08-16T19:01:29.057Z,20.40
2018-08-16T19:03:57.690Z,20.30
2018-08-16T19:06:25.502Z,20.20
2018-08-16T19:08:53.248Z,20.10
2018-08-16T19:11:21.088Z,20.00
2018-08-16T19:19:35.129Z,19.80
2018-08-16T19:22:03.565Z,19.70
2018-08-16T19:24:32.870Z,19.70
2018-08-16T19:27:08.749Z,19.60
2018-08-16T19:29:37.006Z,19.60
2018-08-16T19:32:23.737Z,19.50
2018-08-16T19:35:07.929Z,19.50
2018-08-16T19:37:36.894Z,19.50
2018-08-16T19:43:18.913Z,19.30
2018-08-16T19:45:50.371Z,19.30
2018-08-16T19:48:18.392Z,19.20
2018-08-16T19:50:46.275Z,19.10
2018-08-16T19:53:15.091Z,19.10
2018-08-16T19:55:43.050Z,19.00
2018-08-16T19:58:11.407Z,18.90
2018-08-16T20:00:43.345Z,18.80
2018-08-16T20:03:12.275Z,18.80
2018-08-16T20:05:40.174Z,18.70
2018-08-16T20:08:08.098Z,18.70
2018-08-16T20:10:36.029Z,18.60
2018-08-16T20:13:04.063Z,18.60
2018-08-16T20:15:32.307Z,18.50
2018-08-16T20:18:00.217Z,18.50
2018-08-16T20:20:28.328Z,18.40
2018-08-16T20:22:56.647Z,18.40
2018-08-16T20:25:25.429Z,18.30
2018-08-16T20:27:53.814Z,18.30
2018-08-16T20:30:21.951Z,18.20
2018-08-16T20:32:49.926Z,18.10
2018-08-16T20:35:18.081Z,18.00
2018-08-16T20:37:47.205Z,18.00
2018-08-16T20:40:15.165Z,17.90
2018-08-16T20:42:44.056Z,17.80
2018-08-16T20:45:12.172Z,17.80
2018-08-16T20:47:41.147Z,17.70
2018-08-16T20:50:09.375Z,17.70
2018-08-16T20:52:37.689Z,17.70
2018-08-16T20:55:06.866Z,17.70
2018-08-16T20:57:35.794Z,17.70
2018-08-16T21:00:05.583Z,17.70
2018-08-16T21:02:34.377Z,17.70
2018-08-16T21:05:03.466Z,17.70
2018-08-16T21:07:32.233Z,17.60
2018-08-16T21:10:00.949Z,17.60
2018-08-16T21:12:29.646Z,17.70
2018-08-16T21:14:58.549Z,17.70
2018-08-16T21:17:27.204Z,17.60
2018-08-16T21:19:55.983Z,17.70
2018-08-16T21:22:24.846Z,17.70
2018-08-16T21:24:52.786Z,17.70
2018-08-16T21:27:21.732Z,17.70
2018-08-16T21:29:50.541Z,17.70
2018-08-16T21:32:19.393Z,17.80
2018-08-16T21:34:48.267Z,17.80
2018-08-16T21:37:17.040Z,17.80
2018-08-16T21:39:45.802Z,17.90
2018-08-16T21:42:14.619Z,17.90
2018-08-16T21:44:43.380Z,17.90
2018-08-16T21:47:12.374Z,17.90
2018-08-16T21:49:41.337Z,17.90
2018-08-16T21:52:11.115Z,17.90
2018-08-16T21:54:40.063Z,17.90
2018-08-16T21:57:08.823Z,17.90
2018-08-16T21:59:37.598Z,17.90
2018-08-16T22:02:05.593Z,17.90
2018-08-16T22:04:33.670Z,17.90
2018-08-16T22:07:09.621Z,17.90
2018-08-16T22:09:37.684Z,18.00
2018-08-16T22:12:05.664Z,18.00
2018-08-16T22:14:33.750Z,18.00
2018-08-16T22:17:03.524Z,17.90
2018-08-16T22:19:32.313Z,17.90
2018-08-16T22:22:00.347Z,18.00
2018-08-16T22:24:29.081Z,18.00
2018-08-16T22:26:57.702Z,18.00
2018-08-16T22:29:26.511Z,18.00
2018-08-16T22:31:54.585Z,18.00
2018-08-16T22:34:23.362Z,18.10
2018-08-16T22:36:52.027Z,18.10
2018-08-16T22:39:20.151Z,18.10
2018-08-16T22:41:48.101Z,18.20
2018-08-16T22:44:16.843Z,18.20
2018-08-16T22:46:45.714Z,18.10
2018-08-16T22:49:14.417Z,18.10
2018-08-16T22:51:43.237Z,18.00
2018-08-16T22:54:12.088Z,18.00
2018-08-16T22:56:40.816Z,18.00
2018-08-16T22:59:09.430Z,18.00
2018-08-16T23:01:39.332Z,17.90
2018-08-16T23:04:08.136Z,17.90
2018-08-16T23:06:36.824Z,17.90
2018-08-16T23:09:06.607Z,17.80
2018-08-16T23:11:35.448Z,17.80
2018-08-16T23:14:04.381Z,17.80
2018-08-16T23:16:33.469Z,17.70
2018-08-16T23:19:02.541Z,17.70
2018-08-16T23:21:31.325Z,17.60
2018-08-16T23:24:00.054Z,17.60
2018-08-16T23:26:29.004Z,17.60
2018-08-16T23:28:57.244Z,17.60
2018-08-16T23:31:26.203Z,17.70
2018-08-16T23:33:55.341Z,17.70
2018-08-16T23:36:24.301Z,17.70
2018-08-16T23:38:53.058Z,17.70
2018-08-16T23:41:21.849Z,17.70
2018-08-16T23:43:49.825Z,17.70
2018-08-16T23:46:18.532Z,17.70
2018-08-16T23:48:47.660Z,17.60
2018-08-16T23:51:16.442Z,17.60
2018-08-16T23:53:45.260Z,17.50
2018-08-16T23:56:13.178Z,17.50
2018-08-16T23:58:42.008Z,17.50
